sensor_id;sensor_type;location;lat;lon;timestamp;temperature;humidity
6178;DHT22;3122;48.208;11.174;2023-04-01T00:02:17;7.00;1.00
6178;DHT22;3122;48.208;11.174;2023-04-01T00:07:17;7.00;1.00
6178;DHT22;3122;48.208;11.174;2023-04-01T00:12:18;7.00;1.00
6178;DHT22;3122;48.208;11.174;2023-04-01T00:17:18;6.90;1.00
6178;DHT22;3122;48.208;11.174;2023-04-01T00:22:19;6.90;1.00
6178;DHT22;3122;48.208;11.174;2023-04-01T00:27:20;6.90;1.00
6178;DHT22;3122;48.208;11.174;2023-04-01T00:32:20;6.80;1.00
6178;DHT22;3122;48.208;11.174;2023-04-01T00:37:21;6.90;1.00
6178;DHT22;3122;48.208;11.174;2023-04-01T00:42:23;6.90;1.00
6178;DHT22;3122;48.208;11.174;2023-04-01T00:47:25;7.00;1.00
6178;DHT22;3122;48.208;11.174;2023-04-01T00:52:26;6.90;1.00
6178;DHT22;3122;48.208;11.174;2023-04-01T00:57:31;6.90;1.00
6178;DHT22;3122;48.208;11.174;2023-04-01T01:02:33;7.00;1.00
6178;DHT22;3122;48.208;11.174;2023-04-01T01:39:42;7.00;1.00
6178;DHT22;3122;48.208;11.174;2023-04-01T01:44:46;7.00;1.00
6178;DHT22;3122;48.208;11.174;2023-04-01T01:49:48;7.00;1.00
6178;DHT22;3122;48.208;11.174;2023-04-01T01:54:51;7.00;1.00
6178;DHT22;3122;48.208;11.174;2023-04-01T01:59:56;7.00;1.00
6178;DHT22;3122;48.208;11.174;2023-04-01T02:04:57;7.00;1.00
6178;DHT22;3122;48.208;11.174;2023-04-01T02:09:59;6.90;1.00
6178;DHT22;3122;48.208;11.174;2023-04-01T02:15:07;6.90;1.00
6178;DHT22;3122;48.208;11.174;2023-04-01T02:20:17;6.90;1.00
6178;DHT22;3122;48.208;11.174;2023-04-01T02:25:30;6.90;1.00
6178;DHT22;3122;48.208;11.174;2023-04-01T02:30:35;6.80;1.00
6178;DHT22;3122;48.208;11.174;2023-04-01T02:35:37;6.80;1.00
6178;DHT22;3122;48.208;11.174;2023-04-01T02:40:47;6.80;1.00
6178;DHT22;3122;48.208;11.174;2023-04-01T02:45:47;6.70;1.00
6178;DHT22;3122;48.208;11.174;2023-04-01T02:50:48;6.70;1.00
6178;DHT22;3122;48.208;11.174;2023-04-01T02:55:49;6.70;1.00
6178;DHT22;3122;48.208;11.174;2023-04-01T03:00:52;6.60;1.00
6178;DHT22;3122;48.208;11.174;2023-04-01T03:05:52;6.60;1.00
6178;DHT22;3122;48.208;11.174;2023-04-01T03:10:55;6.60;1.00
6178;DHT22;3122;48.208;11.174;2023-04-01T03:15:56;6.50;1.00
6178;DHT22;3122;48.208;11.174;2023-04-01T03:20:56;6.40;1.00
6178;DHT22;3122;48.208;11.174;2023-04-01T03:25:57;6.30;1.00
6178;DHT22;3122;48.208;11.174;2023-04-01T03:30:58;6.20;1.00
6178;DHT22;3122;48.208;11.174;2023-04-01T03:35:58;6.20;1.00
6178;DHT22;3122;48.208;11.174;2023-04-01T03:40:59;6.20;1.00
6178;DHT22;3122;48.208;11.174;2023-04-01T03:46:00;6.20;1.00
6178;DHT22;3122;48.208;11.174;2023-04-01T03:51:00;6.20;1.00
6178;DHT22;3122;48.208;11.174;2023-04-01T03:56:08;6.20;1.00
6178;DHT22;3122;48.208;11.174;2023-04-01T04:01:17;6.20;1.00
6178;DHT22;3122;48.208;11.174;2023-04-01T04:06:19;6.20;1.00
6178;DHT22;3122;48.208;11.174;2023-04-01T04:11:20;6.20;1.00
6178;DHT22;3122;48.208;11.174;2023-04-01T04:16:21;6.30;1.00
6178;DHT22;3122;48.208;11.174;2023-04-01T04:21:22;6.30;1.00
6178;DHT22;3122;48.208;11.174;2023-04-01T04:26:22;6.30;1.00
6178;DHT22;3122;48.208;11.174;2023-04-01T04:31:24;6.30;1.00
6178;DHT22;3122;48.208;11.174;2023-04-01T04:36:25;6.30;1.00
6178;DHT22;3122;48.208;11.174;2023-04-01T04:41:26;6.40;1.00
6178;DHT22;3122;48.208;11.174;2023-04-01T04:46:26;6.60;1.00
6178;DHT22;3122;48.208;11.174;2023-04-01T04:51:27;6.60;1.00
6178;DHT22;3122;48.208;11.174;2023-04-01T04:56:27;6.70;1.00
6178;DHT22;3122;48.208;11.174;2023-04-01T05:01:28;6.70;1.00
6178;DHT22;3122;48.208;11.174;2023-04-01T05:06:29;6.70;1.00
6178;DHT22;3122;48.208;11.174;2023-04-01T05:11:32;6.70;1.00
6178;DHT22;3122;48.208;11.174;2023-04-01T05:16:33;6.80;1.00
6178;DHT22;3122;48.208;11.174;2023-04-01T05:21:33;6.80;1.00
6178;DHT22;3122;48.208;11.174;2023-04-01T05:26:34;6.80;1.00
6178;DHT22;3122;48.208;11.174;2023-04-01T05:31:35;6.80;1.00
6178;DHT22;3122;48.208;11.174;2023-04-01T05:36:36;6.70;1.00
6178;DHT22;3122;48.208;11.174;2023-04-01T05:41:37;6.80;1.00
6178;DHT22;3122;48.208;11.174;2023-04-01T05:46:38;6.80;1.00
6178;DHT22;3122;48.208;11.174;2023-04-01T05:51:39;6.90;1.00
6178;DHT22;3122;48.208;11.174;2023-04-01T05:56:39;6.80;1.00
6178;DHT22;3122;48.208;11.174;2023-04-01T06:01:40;6.80;1.00
6178;DHT22;3122;48.208;11.174;2023-04-01T06:06:41;6.80;1.00
6178;DHT22;3122;48.208;11.174;2023-04-01T06:38:12;7.50;1.00
6178;DHT22;3122;48.208;11.174;2023-04-01T06:59:22;7.80;1.00
6178;DHT22;3122;48.208;11.174;2023-04-01T07:04:38;7.80;1.00
6178;DHT22;3122;48.208;11.174;2023-04-01T07:09:45;8.00;1.00
6178;DHT22;3122;48.208;11.174;2023-04-01T07:14:51;8.00;1.00
6178;DHT22;3122;48.208;11.174;2023-04-01T07:30:18;8.30;1.00
6178;DHT22;3122;48.208;11.174;2023-04-01T07:35:28;8.40;1.00
6178;DHT22;3122;48.208;11.174;2023-04-01T07:56:36;8.30;1.00
6178;DHT22;3122;48.208;11.174;2023-04-01T08:01:48;8.40;1.00
6178;DHT22;3122;48.208;11.174;2023-04-01T08:07:03;8.50;1.00
6178;DHT22;3122;48.208;11.174;2023-04-01T08:12:35;8.50;1.00
6178;DHT22;3122;48.208;11.174;2023-04-01T08:23:19;8.80;1.00
6178;DHT22;3122;48.208;11.174;2023-04-01T08:33:54;9.00;1.00
6178;DHT22;3122;48.208;11.174;2023-04-01T08:50:02;9.50;1.00
6178;DHT22;3122;48.208;11.174;2023-04-01T09:16:37;9.90;1.00
6178;DHT22;3122;48.208;11.174;2023-04-01T10:00:20;10.20;1.00
6178;DHT22;3122;48.208;11.174;2023-04-01T10:27:56;10.30;1.00
6178;DHT22;3122;48.208;11.174;2023-04-01T10:44:09;9.60;1.00
6178;DHT22;3122;48.208;11.174;2023-04-01T10:55:27;9.20;1.00
6178;DHT22;3122;48.208;11.174;2023-04-01T11:27:56;8.00;1.00
6178;DHT22;3122;48.208;11.174;2023-04-01T11:33:14;7.80;1.00
6178;DHT22;3122;48.208;11.174;2023-04-01T11:54:32;7.70;1.00
6178;DHT22;3122;48.208;11.174;2023-04-01T12:05:04;7.70;1.00
6178;DHT22;3122;48.208;11.174;2023-04-01T12:10:28;7.70;1.00
6178;DHT22;3122;48.208;11.174;2023-04-01T12:37:14;8.00;1.00
6178;DHT22;3122;48.208;11.174;2023-04-01T12:42:36;8.10;1.00
6178;DHT22;3122;48.208;11.174;2023-04-01T13:08:27;7.90;1.00
6178;DHT22;3122;48.208;11.174;2023-04-01T13:29:21;8.00;1.00
6178;DHT22;3122;48.208;11.174;2023-04-01T14:22:30;8.60;1.00
6178;DHT22;3122;48.208;11.174;2023-04-01T14:33:23;8.60;1.00
6178;DHT22;3122;48.208;11.174;2023-04-01T14:38:35;8.60;1.00
6178;DHT22;3122;48.208;11.174;2023-04-01T14:49:14;8.50;1.00
6178;DHT22;3122;48.208;11.174;2023-04-01T14:54:32;8.60;1.00
6178;DHT22;3122;48.208;11.174;2023-04-01T14:59:40;8.60;1.00
6178;DHT22;3122;48.208;11.174;2023-04-01T15:10:21;8.70;1.00
6178;DHT22;3122;48.208;11.174;2023-04-01T15:15:39;8.70;1.00
6178;DHT22;3122;48.208;11.174;2023-04-01T15:21:08;8.70;1.00
6178;DHT22;3122;48.208;11.174;2023-04-01T15:47:58;9.10;1.00
6178;DHT22;3122;48.208;11.174;2023-04-01T16:03:59;9.00;1.00
6178;DHT22;3122;48.208;11.174;2023-04-01T16:09:32;8.90;1.00
6178;DHT22;3122;48.208;11.174;2023-04-01T16:19:56;8.70;1.00
6178;DHT22;3122;48.208;11.174;2023-04-01T16:25:14;8.80;1.00
6178;DHT22;3122;48.208;11.174;2023-04-01T16:30:35;8.80;1.00
6178;DHT22;3122;48.208;11.174;2023-04-01T16:35:55;8.80;1.00
6178;DHT22;3122;48.208;11.174;2023-04-01T16:41:12;8.80;1.00
6178;DHT22;3122;48.208;11.174;2023-04-01T16:51:17;8.70;1.00
6178;DHT22;3122;48.208;11.174;2023-04-01T16:56:23;8.70;1.00
6178;DHT22;3122;48.208;11.174;2023-04-01T17:01:29;8.70;1.00
6178;DHT22;3122;48.208;11.174;2023-04-01T17:06:48;8.60;1.00
6178;DHT22;3122;48.208;11.174;2023-04-01T17:12:13;8.60;1.00
6178;DHT22;3122;48.208;11.174;2023-04-01T17:17:48;8.50;1.00
6178;DHT22;3122;48.208;11.174;2023-04-01T17:23:18;8.60;1.00
6178;DHT22;3122;48.208;11.174;2023-04-01T17:28:45;8.60;1.00
6178;DHT22;3122;48.208;11.174;2023-04-01T17:39:12;8.50;1.00
6178;DHT22;3122;48.208;11.174;2023-04-01T17:44:29;8.50;1.00
6178;DHT22;3122;48.208;11.174;2023-04-01T17:49:42;8.50;1.00
6178;DHT22;3122;48.208;11.174;2023-04-01T18:11:05;8.40;1.00
6178;DHT22;3122;48.208;11.174;2023-04-01T18:16:17;8.40;1.00
6178;DHT22;3122;48.208;11.174;2023-04-01T18:47:43;8.30;1.00
6178;DHT22;3122;48.208;11.174;2023-04-01T18:52:47;8.30;1.00
6178;DHT22;3122;48.208;11.174;2023-04-01T18:57:52;8.20;1.00
6178;DHT22;3122;48.208;11.174;2023-04-01T19:03:22;8.20;1.00
6178;DHT22;3122;48.208;11.174;2023-04-01T19:45:54;7.60;1.00
6178;DHT22;3122;48.208;11.174;2023-04-01T19:51:07;7.60;1.00
6178;DHT22;3122;48.208;11.174;2023-04-01T19:56:19;7.50;1.00
6178;DHT22;3122;48.208;11.174;2023-04-01T20:06:38;7.40;1.00
6178;DHT22;3122;48.208;11.174;2023-04-01T20:11:56;7.40;1.00
6178;DHT22;3122;48.208;11.174;2023-04-01T20:22:10;7.30;1.00
6178;DHT22;3122;48.208;11.174;2023-04-01T20:27:22;7.30;1.00
6178;DHT22;3122;48.208;11.174;2023-04-01T20:32:44;7.20;1.00
6178;DHT22;3122;48.208;11.174;2023-04-01T21:16:47;7.10;1.00
6178;DHT22;3122;48.208;11.174;2023-04-01T21:27:12;7.10;1.00
6178;DHT22;3122;48.208;11.174;2023-04-01T21:32:31;7.00;1.00
6178;DHT22;3122;48.208;11.174;2023-04-01T21:37:46;7.00;1.00
6178;DHT22;3122;48.208;11.174;2023-04-01T22:15:08;7.20;1.00
6178;DHT22;3122;48.208;11.174;2023-04-01T22:20:47;7.10;1.00
6178;DHT22;3122;48.208;11.174;2023-04-01T22:26:17;7.10;1.00
6178;DHT22;3122;48.208;11.174;2023-04-01T22:31:29;7.20;1.00
6178;DHT22;3122;48.208;11.174;2023-04-01T22:42:01;7.20;1.00
6178;DHT22;3122;48.208;11.174;2023-04-01T22:52:41;7.20;1.00
6178;DHT22;3122;48.208;11.174;2023-04-01T23:03:17;7.20;1.00
6178;DHT22;3122;48.208;11.174;2023-04-01T23:13:52;7.10;1.00
6178;DHT22;3122;48.208;11.174;2023-04-01T23:19:03;7.20;1.00
6178;DHT22;3122;48.208;11.174;2023-04-01T23:24:25;7.20;1.00
6178;DHT22;3122;48.208;11.174;2023-04-01T23:29:29;7.20;1.00
6178;DHT22;3122;48.208;11.174;2023-04-01T23:34:34;7.20;1.00
6178;DHT22;3122;48.208;11.174;2023-04-01T23:44:39;7.20;1.00
6178;DHT22;3122;48.208;11.174;2023-04-01T23:49:43;7.20;1.00
6178;DHT22;3122;48.208;11.174;2023-04-01T23:55:00;7.10;1.00
